Time;durP1;ratioP1;P1;durP2;ratioP2;P2;SDS_P1;SDS_P2;PMS_P1;PMS_P2;Temp;Humidity;BMP_temperature;BMP_pressure;BME280_temperature;BME280_humidity;BME280_pressure;Samples;Min_cycle;Max_cycle;Signal;HPM_P1;HPM_P2
2021/12/27 00:01:18;;;;;;;29.42;22.60;;;;;;;4.59;100.00;100115.50;5237993;28;20028;-71
2021/12/27 00:03:51;;;;;;;27.97;21.97;;;;;;;4.61;100.00;100108.41;5236366;28;20037;-70
2021/12/27 00:06:23;;;;;;;;;;;;;;;5.07;100.00;100115.44;5239516;28;20037;-70
2021/12/27 00:08:54;;;;;;;26.40;21.38;;;;;;;4.63;100.00;100109.16;5240884;28;20302;-71
2021/12/27 00:11:26;;;;;;;29.63;22.10;;;;;;;4.65;100.00;100116.81;5238363;28;20041;-70
2021/12/27 00:13:57;;;;;;;24.92;20.25;;;;;;;4.68;100.00;100115.78;5240371;28;20095;-71
2021/12/27 00:16:28;;;;;;;26.15;20.85;;;;;;;4.67;100.00;100122.72;5237089;28;20029;-70
2021/12/27 00:19:00;;;;;;;28.75;20.20;;;;;;;4.70;100.00;100119.06;5238469;28;20426;-71
2021/12/27 00:21:31;;;;;;;27.00;20.98;;;;;;;4.69;100.00;100120.00;5238239;28;20398;-70
2021/12/27 00:24:03;;;;;;;27.00;20.98;;;;;;;4.68;100.00;100107.97;5237601;28;20080;-71
2021/12/27 00:26:34;;;;;;;27.90;22.40;;;;;;;4.68;100.00;100108.81;5237246;28;20342;-70
2021/12/27 00:29:05;;;;;;;25.45;21.38;;;;;;;4.69;100.00;100107.03;5236310;28;20391;-71
2021/12/27 00:31:37;;;;;;;25.50;20.05;;;;;;;4.67;100.00;100101.16;5238194;28;20071;-72
2021/12/27 00:34:09;;;;;;;27.42;20.38;;;;;;;4.68;100.00;100100.19;5238203;28;20544;-70
2021/12/27 00:36:40;;;;;;;25.08;20.35;;;;;;;4.64;100.00;100100.41;5237609;28;20030;-70
2021/12/27 00:39:12;;;;;;;26.50;21.33;;;;;;;4.69;100.00;100094.88;5235520;28;20029;-70
2021/12/27 00:41:43;;;;;;;29.02;21.25;;;;;;;4.66;100.00;100087.34;5236727;28;20340;-70
2021/12/27 00:44:14;;;;;;;23.60;19.45;;;;;;;4.69;100.00;100089.69;5239435;28;20761;-70
2021/12/27 00:46:46;;;;;;;27.58;21.60;;;;;;;4.72;100.00;100083.47;5235293;28;20029;-70
2021/12/27 00:49:17;;;;;;;24.05;20.17;;;;;;;4.71;100.00;100072.28;5236244;28;20028;-71
2021/12/27 00:51:49;;;;;;;25.95;19.85;;;;;;;4.72;100.00;100073.09;5237773;28;20040;-70
2021/12/27 00:54:20;;;;;;;24.10;20.10;;;;;;;4.72;100.00;100067.91;5210818;28;20054;-71
2021/12/27 00:56:51;;;;;;;26.60;21.02;;;;;;;4.75;100.00;100065.91;5215137;28;20038;-71
2021/12/27 00:59:22;;;;;;;24.25;20.77;;;;;;;4.73;100.00;100069.56;5215683;28;20069;-70
2021/12/27 01:01:54;;;;;;;24.55;19.67;;;;;;;4.77;100.00;100063.19;5215668;28;20080;-71
2021/12/27 01:04:25;;;;;;;25.88;21.30;;;;;;;4.76;100.00;100058.94;5215911;28;20133;-71
2021/12/27 01:06:56;;;;;;;26.33;21.65;;;;;;;4.76;100.00;100062.38;5215465;28;20067;-71
2021/12/27 01:12:35;;;;;;;25.88;20.75;;;;;;;4.81;100.00;100068.06;5184905;28;20038;-71
2021/12/27 01:17:40;;;;;;;25.98;21.15;;;;;;;4.83;100.00;100055.78;5217341;28;20514;-71
2021/12/27 01:20:14;;;;;;;26.10;20.48;;;;;;;4.87;100.00;100054.63;5217885;28;20065;-71
2021/12/27 01:22:46;;;;;;;24.60;20.85;;;;;;;4.80;100.00;100055.19;5199969;28;20030;-72
2021/12/27 01:25:17;;;;;;;25.35;20.00;;;;;;;4.85;100.00;100053.94;5216109;28;20031;-72
2021/12/27 01:27:51;;;;;;;26.65;21.77;;;;;;;4.83;100.00;100054.97;5217465;28;20409;-73
2021/12/27 01:30:23;;;;;;;25.92;20.60;;;;;;;4.85;100.00;100053.09;5216625;28;20142;-73
2021/12/27 01:32:58;;;;;;;26.65;20.95;;;;;;;4.86;100.00;100057.34;5216744;28;20523;-73
2021/12/27 01:35:30;;;;;;;25.33;20.42;;;;;;;4.87;100.00;100057.22;5216305;28;20080;-73
2021/12/27 01:38:03;;;;;;;25.38;20.88;;;;;;;4.90;100.00;100056.19;5217335;28;20061;-73
2021/12/27 01:40:34;;;;;;;26.97;21.13;;;;;;;4.91;100.00;100049.22;5216553;28;20045;-72
2021/12/27 01:43:15;;;;;;;25.35;20.60;;;;;;;5.01;100.00;100052.78;5216315;28;20722;-70
2021/12/27 01:45:50;;;;;;;24.60;20.38;;;;;;;4.90;100.00;100044.97;5216508;28;20073;-71
2021/12/27 01:48:25;;;;;;;26.13;20.30;;;;;;;4.99;100.00;100044.28;5215833;28;20029;-70
2021/12/27 01:50:58;;;;;;;29.25;21.83;;;;;;;4.98;100.00;100048.66;5215308;28;20025;-71
2021/12/27 01:53:32;;;;;;;;;;;;;;;5.42;100.00;100043.63;5215024;28;20034;-71
2021/12/27 01:56:05;;;;;;;;;;;;;;;5.43;100.00;100040.13;5218640;28;19976;-70
2021/12/27 01:58:37;;;;;;;28.45;20.77;;;;;;;5.07;100.00;100039.34;5215080;28;19996;-70
2021/12/27 02:01:11;;;;;;;26.85;21.23;;;;;;;5.05;100.00;100039.47;5218926;28;20031;-71
2021/12/27 02:03:43;;;;;;;27.10;21.00;;;;;;;5.05;100.00;100042.06;5215061;28;20033;-71
2021/12/27 02:06:14;;;;;;;27.58;22.25;;;;;;;5.02;100.00;100038.88;5216522;28;20026;-72
2021/12/27 02:08:46;;;;;;;28.42;21.05;;;;;;;5.05;100.00;100029.09;5217636;28;20155;-72
2021/12/27 02:11:19;;;;;;;25.80;21.13;;;;;;;5.04;100.00;100026.63;5216776;28;20041;-72
2021/12/27 02:13:51;;;;;;;;;;;;;;;5.43;100.00;100027.13;5218066;28;20518;-72
2021/12/27 02:16:22;;;;;;;27.42;20.05;;;;;;;5.08;100.00;100036.66;5219544;28;19913;-72
2021/12/27 02:18:53;;;;;;;27.23;21.27;;;;;;;5.06;100.00;100032.50;5219043;28;20057;-72
2021/12/27 02:21:25;;;;;;;27.40;20.42;;;;;;;5.11;100.00;100031.22;5217896;28;20045;-72
2021/12/27 02:23:57;;;;;;;26.67;20.48;;;;;;;5.13;100.00;100036.28;5217355;28;20088;-71
2021/12/27 02:26:28;;;;;;;28.33;22.50;;;;;;;5.14;100.00;100027.56;5219376;28;20038;-71
2021/12/27 02:29:00;;;;;;;26.98;20.40;;;;;;;5.17;100.00;100031.69;5220123;28;20037;-72
2021/12/27 02:31:37;;;;;;;26.92;21.50;;;;;;;5.18;100.00;100028.97;5219578;28;20083;-72
2021/12/27 02:34:10;;;;;;;26.65;20.10;;;;;;;5.20;100.00;100024.50;5219702;28;20053;-72
2021/12/27 02:36:41;;;;;;;27.25;22.13;;;;;;;5.22;100.00;100033.00;5219752;28;20053;-71
2021/12/27 02:39:12;;;;;;;25.33;20.63;;;;;;;5.25;100.00;100039.75;5219753;28;20571;-72
2021/12/27 02:41:44;;;;;;;26.52;20.88;;;;;;;5.23;100.00;100033.84;5219442;28;20210;-72
2021/12/27 02:44:15;;;;;;;25.05;20.63;;;;;;;5.25;100.00;100042.34;5218316;28;20488;-72
2021/12/27 02:46:46;;;;;;;29.25;22.85;;;;;;;5.27;100.00;100035.28;5218517;28;20440;-72
2021/12/27 02:49:18;;;;;;;25.80;21.35;;;;;;;5.28;100.00;100034.31;5218853;28;20022;-72
2021/12/27 02:51:49;;;;;;;25.40;20.67;;;;;;;5.32;100.00;100022.75;5220195;28;20026;-72
2021/12/27 02:54:21;;;;;;;29.55;22.30;;;;;;;5.25;100.00;100024.16;5229393;28;20519;-72
2021/12/27 02:56:52;;;;;;;30.20;23.70;;;;;;;5.26;100.00;100023.22;5239971;28;20030;-71
2021/12/27 02:59:23;;;;;;;28.60;21.13;;;;;;;5.30;100.00;100012.50;5240749;28;20474;-72
2021/12/27 03:01:55;;;;;;;28.17;22.27;;;;;;;5.31;100.00;100013.31;5241037;28;20866;-72
2021/12/27 03:04:27;;;;;;;28.52;20.55;;;;;;;5.34;100.00;100018.25;5238611;28;20407;-72
2021/12/27 03:06:58;;;;;;;29.30;22.00;;;;;;;5.33;100.00;100014.00;5238868;28;20053;-72
2021/12/27 03:09:29;;;;;;;27.10;20.88;;;;;;;5.32;100.00;100005.41;5222491;28;20119;-71
2021/12/27 03:12:01;;;;;;;29.10;21.42;;;;;;;5.32;100.00;100004.56;5238403;28;20021;-71
2021/12/27 03:14:32;;;;;;;28.25;21.23;;;;;;;5.35;100.00;99996.56;5240535;28;20062;-71
2021/12/27 03:17:04;;;;;;;26.85;20.50;;;;;;;5.33;100.00;99999.25;5240632;28;20123;-71
2021/12/27 03:19:35;;;;;;;29.27;22.17;;;;;;;5.33;100.00;99994.06;5237144;28;20364;-71
2021/12/27 03:22:06;;;;;;;27.67;22.48;;;;;;;5.32;100.00;99989.00;5240357;28;20037;-71
2021/12/27 03:24:37;;;;;;;27.67;21.35;;;;;;;5.29;100.00;99995.22;5238815;28;20025;-71
2021/12/27 03:27:09;;;;;;;31.63;22.95;;;;;;;5.39;100.00;99995.38;5239563;28;20025;-71
2021/12/27 03:29:40;;;;;;;30.40;21.15;;;;;;;5.36;100.00;99995.59;5236972;28;20098;-71
2021/12/27 03:32:11;;;;;;;25.98;20.08;;;;;;;5.41;100.00;100006.44;5221737;28;20479;-71
2021/12/27 03:34:53;;;;;;;29.27;22.45;;;;;;;5.43;100.00;99995.97;5238632;28;20029;-71
2021/12/27 03:37:24;;;;;;;27.40;21.15;;;;;;;5.45;100.00;99997.47;5239468;28;20030;-71
2021/12/27 03:39:55;;;;;;;28.38;21.83;;;;;;;5.43;100.00;99998.56;5237624;28;20032;-71
2021/12/27 03:42:27;;;;;;;27.80;20.75;;;;;;;5.46;100.00;99996.56;5238575;28;20122;-71
2021/12/27 03:44:59;;;;;;;31.00;22.20;;;;;;;5.51;100.00;99994.41;5236459;28;20032;-71
2021/12/27 03:47:30;;;;;;;29.38;21.60;;;;;;;5.48;100.00;99988.63;5237580;28;20503;-71
2021/12/27 03:50:02;;;;;;;28.33;21.38;;;;;;;5.53;100.00;99984.75;5237814;28;20033;-71
2021/12/27 03:52:34;;;;;;;25.88;20.83;;;;;;;5.51;100.00;99981.44;5219074;28;20557;-71
2021/12/27 03:55:06;;;;;;;27.30;22.15;;;;;;;5.49;100.00;99972.94;5236781;28;20053;-70
2021/12/27 03:57:41;;;;;;;25.15;20.25;;;;;;;5.57;100.00;99985.34;5241253;28;20044;-71
2021/12/27 04:02:56;;;;;;;27.50;21.23;;;;;;;5.56;100.00;99966.31;5239562;28;20116;-71
2021/12/27 04:05:30;;;;;;;24.15;19.52;;;;;;;5.53;100.00;99961.38;5236460;28;20113;-71
2021/12/27 04:08:09;;;;;;;26.88;20.75;;;;;;;5.56;100.00;99966.31;5238635;28;20522;-71
2021/12/27 04:10:41;;;;;;;27.80;20.40;;;;;;;5.59;100.00;99965.25;5240302;28;20401;-71
2021/12/27 04:13:14;;;;;;;29.10;22.27;;;;;;;5.60;100.00;99956.50;5219900;28;20036;-71
2021/12/27 04:15:45;;;;;;;28.92;20.30;;;;;;;5.65;100.00;99958.75;5239460;28;20030;-71
2021/12/27 04:18:17;;;;;;;25.33;20.30;;;;;;;5.64;100.00;99952.72;5238148;28;20513;-72
2021/12/27 04:20:49;;;;;;;26.00;21.27;;;;;;;5.57;100.00;99947.19;5237061;28;20076;-71
2021/12/27 04:23:21;;;;;;;28.10;21.50;;;;;;;5.57;100.00;99959.34;5235778;28;20045;-71
2021/12/27 04:25:52;;;;;;;26.20;20.67;;;;;;;5.58;100.00;99946.22;5236517;28;20039;-72
2021/12/27 04:28:24;;;;;;;26.23;20.70;;;;;;;5.60;100.00;99940.91;5238012;28;20036;-72
2021/12/27 04:30:55;;;;;;;26.33;20.85;;;;;;;5.61;100.00;99939.97;5240191;28;20035;-72
2021/12/27 04:33:27;;;;;;;23.42;19.52;;;;;;;5.65;100.00;99938.78;5235949;28;20036;-72
2021/12/27 04:35:58;;;;;;;26.27;19.90;;;;;;;5.64;100.00;99938.91;5237276;28;20337;-71
2021/12/27 04:38:29;;;;;;;26.67;21.60;;;;;;;5.68;100.00;99935.09;5236256;28;20065;-71
2021/12/27 04:41:03;;;;;;;27.42;20.40;;;;;;;5.68;100.00;99937.69;5235742;28;20462;-71
2021/12/27 04:43:34;;;;;;;;;;;;;;;6.12;100.00;99939.41;5238131;28;20033;-71
2021/12/27 04:46:05;;;;;;;27.23;20.70;;;;;;;5.74;100.00;99932.03;5236460;28;19917;-71
2021/12/27 04:48:37;;;;;;;23.67;19.60;;;;;;;5.76;100.00;99941.38;5236063;28;20306;-70
2021/12/27 04:51:08;;;;;;;27.15;21.20;;;;;;;5.74;100.00;99925.06;5237096;28;20475;-72
2021/12/27 04:53:39;;;;;;;24.65;19.42;;;;;;;5.79;100.00;99927.28;5236232;28;20494;-72
2021/12/27 04:56:11;;;;;;;25.52;20.45;;;;;;;5.79;100.00;99935.09;5198796;28;20049;-71
2021/12/27 04:58:46;;;;;;;26.42;20.40;;;;;;;5.82;100.00;99934.84;5215653;28;20213;-71
2021/12/27 05:01:17;;;;;;;24.42;20.77;;;;;;;5.82;100.00;99927.03;5215350;28;20407;-71
2021/12/27 05:03:49;;;;;;;25.58;20.77;;;;;;;5.81;100.00;99928.00;5217545;28;20037;-71
2021/12/27 05:06:20;;;;;;;26.90;20.73;;;;;;;5.80;100.00;99929.78;5231207;28;20419;-71
2021/12/27 05:08:53;;;;;;;25.45;19.95;;;;;;;5.84;100.00;99931.19;5215384;28;20453;-72
2021/12/27 05:11:24;;;;;;;26.52;21.08;;;;;;;5.84;100.00;99923.38;5200675;28;20377;-71
2021/12/27 05:13:56;;;;;;;23.85;18.73;;;;;;;5.78;100.00;99933.44;5217861;28;20145;-71
2021/12/27 05:16:27;;;;;;;24.08;18.98;;;;;;;5.80;100.00;99932.38;5216923;28;20040;-71
2021/12/27 05:18:58;;;;;;;27.23;20.15;;;;;;;5.83;100.00;99937.34;5215838;28;20096;-70
2021/12/27 05:21:30;;;;;;;22.38;18.40;;;;;;;5.83;100.00;99926.94;5216859;28;20041;-71
2021/12/27 05:24:01;;;;;;;26.48;19.77;;;;;;;5.87;100.00;99924.91;5216533;28;20030;-71
2021/12/27 05:26:33;;;;;;;23.20;19.05;;;;;;;5.89;100.00;99925.63;5215972;28;20046;-71
2021/12/27 05:29:04;;;;;;;27.83;20.33;;;;;;;5.88;100.00;99929.16;5215259;28;20083;-71
2021/12/27 05:31:37;;;;;;;24.63;18.48;;;;;;;5.89;100.00;99919.59;5215652;28;20045;-71
2021/12/27 05:34:10;;;;;;;25.98;20.45;;;;;;;5.92;100.00;99917.59;5214580;28;20037;-72
2021/12/27 05:36:43;;;;;;;23.85;19.10;;;;;;;5.92;100.00;99917.59;5216008;28;20034;-71
2021/12/27 05:39:19;;;;;;;24.15;19.33;;;;;;;5.93;100.00;99913.22;5214900;28;20057;-72
2021/12/27 05:41:50;;;;;;;25.80;19.90;;;;;;;5.91;100.00;99905.53;5217087;28;20041;-71
2021/12/27 05:44:22;;;;;;;23.45;19.10;;;;;;;5.94;100.00;99905.28;5213612;28;20476;-71
2021/12/27 05:46:57;;;;;;;24.27;18.80;;;;;;;5.98;100.00;99911.06;5215521;28;20040;-71
2021/12/27 05:49:28;;;;;;;23.88;19.02;;;;;;;5.96;100.00;99913.81;5215947;28;20045;-71
2021/12/27 05:51:59;;;;;;;23.88;19.63;;;;;;;5.95;100.00;99904.38;5215925;28;20029;-71
2021/12/27 05:54:31;;;;;;;26.42;19.38;;;;;;;5.98;100.00;99908.47;5214373;28;20145;-71
2021/12/27 05:57:03;;;;;;;23.35;18.45;;;;;;;6.00;100.00;99914.41;5218734;28;20033;-71
2021/12/27 05:59:34;;;;;;;24.35;18.42;;;;;;;5.96;100.00;99921.59;5215540;28;20029;-71
2021/12/27 06:02:05;;;;;;;26.67;19.17;;;;;;;6.03;100.00;99920.16;5218002;28;20112;-71
2021/12/27 06:04:37;;;;;;;25.55;18.90;;;;;;;6.04;100.00;99918.41;5216075;28;20021;-71
2021/12/27 06:07:08;;;;;;;22.08;18.52;;;;;;;6.09;100.00;99919.66;5216257;28;20021;-71
2021/12/27 06:09:39;;;;;;;25.35;18.98;;;;;;;6.08;100.00;99915.41;5204433;28;20029;-71
2021/12/27 06:12:11;;;;;;;25.13;19.35;;;;;;;6.09;100.00;99908.44;5203592;28;20495;-71
2021/12/27 06:14:42;;;;;;;24.92;18.85;;;;;;;6.12;100.00;99909.97;5214905;28;20104;-71
2021/12/27 06:17:13;;;;;;;21.05;17.85;;;;;;;6.13;100.00;99909.00;5214851;28;20535;-71
2021/12/27 06:19:45;;;;;;;23.13;18.10;;;;;;;6.13;100.00;99909.84;5215776;28;20044;-71
2021/12/27 06:22:17;;;;;;;21.92;18.70;;;;;;;6.14;100.00;99914.09;5217520;28;20026;-71
2021/12/27 06:24:48;;;;;;;24.27;18.27;;;;;;;6.17;100.00;99911.22;5215638;28;20293;-71
2021/12/27 06:27:20;;;;;;;23.55;19.05;;;;;;;6.16;100.00;99898.38;5215098;28;20653;-72
2021/12/27 06:29:51;;;;;;;23.92;18.55;;;;;;;6.17;100.00;99902.59;5216295;28;20420;-72
2021/12/27 06:32:22;;;;;;;23.13;18.40;;;;;;;6.20;100.00;99902.38;5215399;28;20034;-71
2021/12/27 06:34:53;;;;;;;23.30;18.17;;;;;;;6.25;100.00;99903.66;5216178;28;20602;-71
2021/12/27 06:37:25;;;;;;;23.42;18.20;;;;;;;6.24;100.00;99901.16;5215406;28;20049;-71
2021/12/27 06:39:56;;;;;;;25.75;18.58;;;;;;;6.27;100.00;99898.31;5214043;28;20040;-71
2021/12/27 06:42:28;;;;;;;24.83;19.65;;;;;;;6.30;100.00;99895.47;5214365;28;20067;-71
2021/12/27 06:44:59;;;;;;;22.50;18.30;;;;;;;6.30;100.00;99893.69;5216662;28;20026;-71
2021/12/27 06:47:31;;;;;;;24.70;18.67;;;;;;;6.32;100.00;99896.16;5213815;28;20384;-71
2021/12/27 06:50:03;;;;;;;22.23;17.90;;;;;;;6.31;100.00;99890.13;5213984;28;20097;-71
2021/12/27 06:52:35;;;;;;;22.85;18.42;;;;;;;6.36;100.00;99889.75;5209804;28;20038;-71
2021/12/27 06:55:08;;;;;;;27.17;18.70;;;;;;;6.30;100.00;99877.25;5226294;28;20045;-70
2021/12/27 06:57:40;;;;;;;23.15;18.60;;;;;;;6.40;100.00;99885.94;5237485;28;20112;-71
2021/12/27 07:00:13;;;;;;;24.50;18.33;;;;;;;6.41;100.00;99878.97;5238925;28;20025;-71
2021/12/27 07:02:45;;;;;;;23.52;17.95;;;;;;;6.42;100.00;99876.25;5240965;28;20059;-71
2021/12/27 07:05:17;;;;;;;25.75;19.35;;;;;;;6.39;100.00;99875.66;5237875;28;20029;-71
2021/12/27 07:07:49;;;;;;;24.30;18.75;;;;;;;6.41;100.00;99871.19;5239755;28;20029;-71
2021/12/27 07:10:22;;;;;;;24.25;18.67;;;;;;;6.41;100.00;99860.78;5237674;28;20604;-71
2021/12/27 07:12:53;;;;;;;24.48;17.88;;;;;;;6.44;100.00;99863.09;5238757;28;20043;-71
2021/12/27 07:15:25;;;;;;;23.08;17.13;;;;;;;6.44;100.00;99870.91;5239962;28;20024;-71
2021/12/27 07:17:56;;;;;;;25.80;18.80;;;;;;;6.42;100.00;99865.84;5239883;28;20522;-71
2021/12/27 07:20:28;;;;;;;27.13;18.75;;;;;;;6.42;100.00;99865.84;5239109;28;20024;-71
2021/12/27 07:22:59;;;;;;;25.90;18.58;;;;;;;6.44;100.00;99857.88;5237810;28;20407;-72
2021/12/27 07:25:30;;;;;;;24.92;17.88;;;;;;;6.39;100.00;99853.06;5239977;28;20044;-72
2021/12/27 07:28:02;;;;;;;24.73;18.90;;;;;;;6.40;100.00;99851.28;5238550;28;20068;-72
2021/12/27 07:30:33;;;;;;;24.17;18.05;;;;;;;6.39;100.00;99853.06;5239477;28;20523;-71
2021/12/27 07:33:05;;;;;;;23.48;17.35;;;;;;;6.32;100.00;99857.97;5239500;28;20410;-71
2021/12/27 07:35:36;;;;;;;22.98;17.27;;;;;;;6.42;100.00;99868.44;5238986;28;20029;-71
2021/12/27 07:38:08;;;;;;;22.58;17.70;;;;;;;6.44;100.00;99861.34;5239150;28;20072;-71
2021/12/27 07:40:39;;;;;;;22.90;17.13;;;;;;;6.46;100.00;99862.03;5239048;28;20024;-71
2021/12/27 07:43:10;;;;;;;22.23;16.60;;;;;;;6.47;100.00;99861.06;5237567;28;20058;-71
2021/12/27 07:45:42;;;;;;;23.33;17.42;;;;;;;6.52;100.00;99866.72;5238981;28;20017;-72
2021/12/27 07:48:13;;;;;;;20.80;16.17;;;;;;;6.48;100.00;99865.34;5238808;28;20028;-71
2021/12/27 07:50:44;;;;;;;22.73;16.58;;;;;;;6.52;100.00;99871.94;5238448;28;20029;-71
2021/12/27 07:53:16;;;;;;;21.23;16.67;;;;;;;6.54;100.00;99872.63;5239682;28;20475;-71
2021/12/27 07:55:47;;;;;;;21.90;16.52;;;;;;;6.48;100.00;99865.34;5238795;28;20369;-72
2021/12/27 07:58:18;;;;;;;21.52;16.08;;;;;;;6.52;100.00;99865.91;5237624;28;20025;-73
2021/12/27 08:00:50;;;;;;;22.52;16.65;;;;;;;6.52;100.00;99879.75;5238769;28;20091;-72
2021/12/27 08:03:22;;;;;;;23.88;17.33;;;;;;;6.47;100.00;99863.66;5240627;28;20530;-71
2021/12/27 08:05:54;;;;;;;23.45;16.38;;;;;;;6.50;100.00;99871.22;5239578;28;20478;-71
2021/12/27 08:08:25;;;;;;;19.92;16.13;;;;;;;6.50;100.00;99865.19;5226658;28;20029;-71
2021/12/27 08:10:56;;;;;;;21.98;16.60;;;;;;;6.48;100.00;99887.94;5219593;28;20032;-71
2021/12/27 08:13:28;;;;;;;22.73;15.98;;;;;;;6.47;100.00;99881.06;5238799;28;20038;-71
2021/12/27 08:15:59;;;;;;;22.77;16.52;;;;;;;6.46;100.00;99882.84;5239497;28;20036;-71
2021/12/27 08:18:31;;;;;;;20.38;16.60;;;;;;;6.47;100.00;99883.66;5238778;28;20033;-70
2021/12/27 08:21:02;;;;;;;20.95;15.68;;;;;;;6.49;100.00;99886.97;5238754;28;20022;-71
2021/12/27 08:23:33;;;;;;;21.35;16.50;;;;;;;6.48;100.00;99875.75;5239819;28;20040;-71
2021/12/27 08:26:05;;;;;;;19.83;16.02;;;;;;;6.50;100.00;99875.59;5236450;28;20025;-71
2021/12/27 08:28:36;;;;;;;20.38;15.63;;;;;;;6.50;100.00;99876.44;5237835;28;20583;-71
2021/12/27 08:31:08;;;;;;;19.23;14.95;;;;;;;6.52;100.00;99874.53;5238433;28;20033;-71
2021/12/27 08:33:39;;;;;;;22.50;15.82;;;;;;;6.53;100.00;99873.56;5240622;28;20530;-72
2021/12/27 08:36:10;;;;;;;23.63;16.60;;;;;;;6.53;100.00;99859.75;5237757;28;20070;-71
2021/12/27 08:38:44;;;;;;;19.00;13.90;;;;;;;6.51;100.00;99859.84;5238387;28;20224;-72
2021/12/27 08:41:17;;;;;;;19.30;15.73;;;;;;;6.52;100.00;99858.09;5239659;28;20036;-72
2021/12/27 08:43:49;;;;;;;22.77;15.57;;;;;;;6.47;100.00;99848.06;5238049;28;20075;-72
2021/12/27 08:46:21;;;;;;;18.65;14.63;;;;;;;6.48;100.00;99857.53;5238204;28;20529;-71
2021/12/27 08:48:52;;;;;;;22.90;15.57;;;;;;;6.45;100.00;99855.19;5239655;28;20112;-72
2021/12/27 08:51:25;;;;;;;20.73;15.77;;;;;;;6.39;100.00;99828.84;5239273;28;20409;-72
2021/12/27 08:53:56;;;;;;;21.30;16.00;;;;;;;6.39;100.00;99834.88;5236846;28;20033;-72
2021/12/27 08:56:28;;;;;;;20.85;14.63;;;;;;;6.35;100.00;99823.06;5237415;28;20138;-72
2021/12/27 08:58:59;;;;;;;21.45;15.38;;;;;;;6.38;100.00;99833.22;5238233;28;20033;-72
2021/12/27 09:01:31;;;;;;;20.77;15.25;;;;;;;6.37;100.00;99825.56;5238814;28;20464;-72
2021/12/27 09:04:04;;;;;;;19.20;15.43;;;;;;;6.33;100.00;99835.41;5236424;28;20025;-72
2021/12/27 09:06:36;;;;;;;18.63;15.07;;;;;;;6.31;100.00;99827.69;5231839;28;20112;-72
2021/12/27 09:09:08;;;;;;;19.60;14.88;;;;;;;6.32;100.00;99833.72;5233264;28;20110;-72
2021/12/27 09:11:39;;;;;;;18.20;14.40;;;;;;;6.33;100.00;99836.22;5233423;28;20040;-72
2021/12/27 09:17:38;;;;;;;19.50;16.00;;;;;;;6.34;100.00;99831.84;5581174;23;20161;-72
2021/12/27 09:20:10;;;;;;;17.70;14.38;;;;;;;6.36;100.00;99839.50;5241850;28;20112;-71
2021/12/27 09:22:42;;;;;;;20.30;14.70;;;;;;;6.34;100.00;99842.25;5249436;28;20028;-72
2021/12/27 09:25:14;;;;;;;16.70;13.30;;;;;;;6.32;100.00;99844.94;5239631;28;20025;-72
2021/12/27 09:27:45;;;;;;;17.20;13.35;;;;;;;6.36;100.00;99842.91;5250548;28;20524;-71
2021/12/27 09:30:17;;;;;;;18.33;13.93;;;;;;;6.37;100.00;99839.38;5248373;28;20037;-72
2021/12/27 09:32:50;;;;;;;17.42;13.25;;;;;;;6.36;100.00;99832.50;5249318;28;20029;-72
2021/12/27 09:35:22;;;;;;;16.55;14.00;;;;;;;6.40;100.00;99831.31;5248833;28;20510;-72
2021/12/27 09:37:53;;;;;;;16.98;13.77;;;;;;;6.37;100.00;99825.56;5247510;28;20031;-73
2021/12/27 09:40:25;;;;;;;15.73;13.30;;;;;;;6.40;100.00;99826.09;5250054;28;20112;-73
2021/12/27 09:42:57;;;;;;;16.20;14.50;;;;;;;6.36;100.00;99822.09;5246966;28;20032;-73
2021/12/27 09:45:29;;;;;;;16.90;13.30;;;;;;;6.41;100.00;99825.16;5243918;28;20937;-73
2021/12/27 09:48:00;;;;;;;15.48;12.52;;;;;;;6.49;100.00;99824.53;5229164;28;20039;-73
2021/12/27 09:50:43;;;;;;;15.18;12.43;;;;;;;6.58;100.00;99828.94;5249878;28;20810;-72
2021/12/27 09:53:14;;;;;;;15.02;13.43;;;;;;;6.59;100.00;99817.56;5250358;28;20482;-72
2021/12/27 09:55:46;;;;;;;14.43;12.52;;;;;;;6.64;100.00;99822.41;5249049;28;20036;-72
2021/12/27 09:58:17;;;;;;;15.95;13.15;;;;;;;6.71;100.00;99818.34;5250196;28;20036;-72
2021/12/27 10:00:49;;;;;;;16.25;13.10;;;;;;;6.76;100.00;99810.94;5250278;28;20046;-72
2021/12/27 10:03:22;;;;;;;15.13;13.10;;;;;;;6.89;100.00;99818.53;5248651;28;20071;-72
2021/12/27 10:05:54;;;;;;;15.10;12.55;;;;;;;6.94;100.00;99800.75;5246786;28;20414;-72
2021/12/27 10:08:29;;;;;;;15.63;11.63;;;;;;;6.93;100.00;99791.25;5249122;28;20028;-72
2021/12/27 10:11:01;;;;;;;15.60;12.50;;;;;;;6.86;100.00;99774.53;5246836;28;21281;-73
2021/12/27 10:13:32;;;;;;;13.85;11.73;;;;;;;6.80;100.00;99779.31;5246312;28;20063;-73
2021/12/27 10:16:13;;;;;;;14.05;11.15;;;;;;;6.94;100.00;99780.75;5248922;28;20048;-72
2021/12/27 10:18:44;;;;;;;18.30;11.50;;;;;;;6.87;100.00;99789.22;5249023;28;20049;-73
2021/12/27 10:21:16;;;;;;;14.95;11.50;;;;;;;6.85;100.00;99797.13;5230879;28;20029;-72
2021/12/27 10:23:47;;;;;;;14.98;11.38;;;;;;;6.87;100.00;99794.41;5248637;28;20036;-72
2021/12/27 10:26:18;;;;;;;13.70;11.68;;;;;;;6.92;100.00;99792.22;5248815;28;20032;-72
2021/12/27 10:29:05;;;;;;;14.38;12.85;;;;;;;7.16;100.00;99797.09;5250185;28;20116;-72
2021/12/27 10:31:56;;;;;;;13.70;11.90;;;;;;;7.22;100.00;99789.56;5250009;28;20033;-72
2021/12/27 10:34:32;;;;;;;14.63;11.48;;;;;;;7.16;100.00;99784.06;5253997;28;20193;-72
2021/12/27 10:37:15;;;;;;;14.25;11.02;;;;;;;7.33;100.00;99786.03;5252108;28;20040;-72
2021/12/27 10:40:01;;;;;;;13.63;10.50;;;;;;;7.39;100.00;99788.09;5250446;28;20154;-72
2021/12/27 10:42:37;;;;;;;12.88;10.85;;;;;;;7.43;100.00;99779.03;5249477;28;20415;-72
2021/12/27 10:45:13;;;;;;;12.43;10.38;;;;;;;7.47;100.00;99783.03;5249159;28;20078;-72
2021/12/27 10:47:52;;;;;;;12.48;10.75;;;;;;;7.55;100.00;99779.72;5248118;28;20507;-72
2021/12/27 10:50:29;;;;;;;11.55;9.65;;;;;;;7.60;100.00;99772.31;5246506;28;20063;-72
2021/12/27 10:53:08;;;;;;;12.05;9.48;;;;;;;7.66;100.00;99765.75;5225313;28;20486;-73
2021/12/27 10:55:43;;;;;;;12.93;10.20;;;;;;;7.66;100.00;99769.16;5249527;28;20029;-73
2021/12/27 10:58:20;;;;;;;13.52;9.88;;;;;;;7.70;100.00;99770.53;5248691;28;20029;-72
2021/12/27 11:00:56;;;;;;;11.40;10.05;;;;;;;7.73;100.00;99775.47;5250747;28;20573;-72
2021/12/27 11:03:36;;;;;;;10.48;9.35;;;;;;;7.80;100.00;99767.91;5248145;28;20600;-71
2021/12/27 11:06:12;;;;;;;14.82;9.77;;;;;;;7.81;100.00;99772.19;5250392;28;20063;-72
2021/12/27 11:08:45;;;;;;;11.07;9.65;;;;;;;7.86;100.00;99775.19;5251838;28;20032;-72
2021/12/27 11:11:17;;;;;;;15.68;10.10;;;;;;;7.92;100.00;99774.66;5251268;28;20050;-72
2021/12/27 11:13:52;;;;;;;11.00;8.82;;;;;;;7.97;100.00;99769.00;5248263;28;20117;-72
2021/12/27 11:16:26;;;;;;;10.00;8.98;;;;;;;7.97;100.00;99766.41;5233604;28;20233;-72
2021/12/27 11:18:58;;;;;;;11.00;9.05;;;;;;;8.03;100.00;99758.84;5249020;28;20033;-73
2021/12/27 11:21:32;;;;;;;11.10;8.35;;;;;;;8.08;100.00;99757.59;5249787;28;20060;-72
2021/12/27 11:24:05;;;;;;;10.27;8.18;;;;;;;8.11;100.00;99745.09;5248221;28;20055;-72
2021/12/27 11:26:38;;;;;;;13.20;9.10;;;;;;;8.12;100.00;99743.31;5249845;28;20494;-72
2021/12/27 11:29:22;;;;;;;13.93;8.73;;;;;;;8.25;100.00;99741.19;5251666;28;20025;-72
2021/12/27 11:32:16;;;;;;;10.80;8.30;;;;;;;8.29;100.00;99729.50;5249118;28;20120;-73
2021/12/27 11:35:04;;;;;;;10.90;8.68;;;;;;;8.29;100.00;99732.94;5249705;28;20123;-72
2021/12/27 11:37:40;;;;;;;11.15;9.55;;;;;;;8.17;100.00;99731.47;5248695;28;20032;-72
2021/12/27 11:40:16;;;;;;;10.57;9.18;;;;;;;8.18;100.00;99722.69;5250715;28;20029;-72
2021/12/27 11:42:59;;;;;;;10.18;8.68;;;;;;;8.22;100.00;99718.00;5249689;28;20517;-72
2021/12/27 11:45:37;;;;;;;10.00;8.50;;;;;;;8.24;100.00;99718.69;5252106;28;20101;-72
2021/12/27 11:48:14;;;;;;;11.43;9.15;;;;;;;8.21;100.00;99704.13;5251725;28;20311;-73
2021/12/27 11:50:58;;;;;;;9.98;8.82;;;;;;;8.35;100.00;99704.63;5251118;28;20020;-73
2021/12/27 11:53:29;;;;;;;;;;;;;;;8.66;100.00;99695.59;5250595;28;20497;-72